No particular awareness of the weather is required.    There are no Weather-warnings


Meteo18 Weather Cam more information Meteo18 Weather Cam


Thunder radar more information blitzortung!


Rain radar more information rain snow radar


Visit our other weather sites:

Template documentation
and downloads

And another site



Weather Underground History page Text

Daily Summary for July 17, 2017 Units:  English    Metric   Both
« Previous Day
Next Day »
Daily Weekly Monthly Yearly Custom
  High: Low: Average:
Temperature: 88.7 °F 62.4 °F 76.6 °F
Dew Point: 63.9 °F 58.5 °F 60.4 °F
Humidity: 89 % 38 % 60 %
Wind Speed: 11 mph 0 mph 2.3 mph
Wind Gust: 17 mph - -
Wind:- - SE
Pressure: 30.2 in 30.1 in -
Precipitation: 0 in    
Historical Graphs
 
 
Tabular Data for July 17, 2017
Time Temperature Dew Point Pressure Wind Wind Speed Wind Gust Humidity Rainfall Rate (Hourly)
00:07 68.7 °F 60.1 °F 30.2 in Calm   2 mph 74 % 0 in
00:12 68.5 °F 59.9 °F 30.2 in Calm   2 mph 74 % 0 in
00:17 68.4 °F 60.1 °F 30.2 in Calm   2 mph 75 % 0 in
00:22 68.2 °F 59.9 °F 30.2 in Calm   2 mph 75 % 0 in
00:27 68.4 °F 59.7 °F 30.2 in NNW 1 mph 1 mph 74 % 0 in
00:32 68.9 °F 59.9 °F 30.2 in NNW 1 mph 1 mph 73 % 0 in
00:42 69.6 °F 59.7 °F 30.2 in Calm   2 mph 71 % 0 in
00:52 69.4 °F 59.5 °F 30.2 in Calm   2 mph 71 % 0 in
00:57 69.1 °F 59.7 °F 30.2 in Calm   1 mph 72 % 0 in
01:02 68.2 °F 59.9 °F 30.2 in WNW 1 mph 2 mph 75 % 0 in
01:07 67.8 °F 59.9 °F 30.2 in WNW 1 mph 2 mph 76 % 0 in
01:12 67.6 °F 59.7 °F 30.2 in Calm   2 mph 76 % 0 in
01:17 67.3 °F 59.9 °F 30.2 in Calm   2 mph 77 % 0 in
01:22 66.9 °F 59.5 °F 30.2 in Calm   1 mph 77 % 0 in
01:27 66.9 °F 59.9 °F 30.2 in Calm   1 mph 78 % 0 in
01:32 66.9 °F 59.9 °F 30.2 in Calm   1 mph 78 % 0 in
01:37 66.7 °F 59.7 °F 30.2 in Calm   1 mph 78 % 0 in
01:42 66.6 °F 59.5 °F 30.2 in Calm   1 mph 78 % 0 in
01:47 66.6 °F 59.9 °F 30.2 in Calm   1 mph 79 % 0 in
01:52 66.4 °F 59.7 °F 30.2 in Calm   1 mph 79 % 0 in
01:57 66 °F 59.4 °F 30.2 in WNW 1 mph 1 mph 79 % 0 in
02:02 65.8 °F 59.5 °F 30.2 in WNW 1 mph 2 mph 80 % 0 in
02:07 65.7 °F 59.7 °F 30.2 in WNW 1 mph 2 mph 81 % 0 in
02:17 65.3 °F 59.4 °F 30.2 in Calm   2 mph 81 % 0 in
02:22 65.1 °F 59.2 °F 30.2 in Calm   1 mph 81 % 0 in
02:27 65.1 °F 59.5 °F 30.2 in Calm   1 mph 82 % 0 in
02:32 65.1 °F 59.5 °F 30.2 in Calm   1 mph 82 % 0 in
02:37 65.1 °F 59.2 °F 30.2 in Calm   1 mph 81 % 0 in
02:42 64.8 °F 59.2 °F 30.2 in Calm   1 mph 82 % 0 in
02:47 64.6 °F 59.4 °F 30.2 in WNW 1 mph 1 mph 83 % 0 in
02:52 64.2 °F 59 °F 30.2 in WNW 1 mph 2 mph 83 % 0 in
02:57 64 °F 59.2 °F 30.2 in Calm   2 mph 84 % 0 in
03:02 63.9 °F 59 °F 30.2 in Calm   2 mph 84 % 0 in
03:07 64.4 °F 59.5 °F 30.2 in Calm   2 mph 84 % 0 in
03:12 64.6 °F 59.4 °F 30.2 in NW 1 mph 1 mph 83 % 0 in
03:17 64.2 °F 59.4 °F 30.2 in WNW 1 mph 2 mph 84 % 0 in
03:22 64 °F 59.2 °F 30.2 in Calm   2 mph 84 % 0 in
03:27 64.2 °F 59.4 °F 30.2 in Calm   2 mph 84 % 0 in
03:32 64.6 °F 59.4 °F 30.2 in Calm   2 mph 83 % 0 in
03:37 64.6 °F 59.4 °F 30.2 in Calm   1 mph 83 % 0 in
03:42 64.2 °F 59 °F 30.2 in North 1 mph 1 mph 83 % 0 in
03:47 64.4 °F 59.5 °F 30.2 in NNW 2 mph 2 mph 84 % 0 in
03:52 64.9 °F 59.7 °F 30.2 in North 3 mph 4 mph 83 % 0 in
03:57 64.9 °F 59.4 °F 30.2 in WNW 3 mph 4 mph 82 % 0 in
04:02 65.3 °F 59.7 °F 30.2 in NW 2 mph 5 mph 82 % 0 in
04:07 65.5 °F 59.5 °F 30.2 in NW 1 mph 5 mph 81 % 0 in
04:12 65.8 °F 59.5 °F 30.2 in NW 1 mph 4 mph 80 % 0 in
04:17 65.8 °F 59.9 °F 30.2 in WNW 2 mph 3 mph 81 % 0 in
04:27 66 °F 59.7 °F 30.2 in Calm   3 mph 80 % 0 in
04:32 65.7 °F 59.7 °F 30.2 in NNW 1 mph 3 mph 81 % 0 in
04:37 65.5 °F 59.5 °F 30.2 in Calm   2 mph 81 % 0 in
04:42 65.5 °F 59.5 °F 30.2 in Calm   2 mph 81 % 0 in
04:47 65.1 °F 59.5 °F 30.2 in North 1 mph 1 mph 82 % 0 in
04:52 65.1 °F 59.5 °F 30.2 in North 1 mph 1 mph 82 % 0 in
04:57 65.1 °F 59.5 °F 30.2 in NNW 1 mph 1 mph 82 % 0 in
05:07 64.9 °F 59.4 °F 30.2 in Calm   1 mph 82 % 0 in
05:12 64.8 °F 59.5 °F 30.2 in NW 1 mph 1 mph 83 % 0 in
05:17 64.9 °F 59.9 °F 30.2 in Calm   2 mph 84 % 0 in
05:22 64.2 °F 59 °F 30.2 in Calm   2 mph 83 % 0 in
05:32 63.7 °F 59 °F 30.2 in WNW 1 mph 2 mph 85 % 0 in
05:37 63.3 °F 59 °F 30.2 in WNW 1 mph 1 mph 86 % 0 in
05:42 63.3 °F 59.4 °F 30.2 in Calm   1 mph 87 % 0 in
05:52 63.1 °F 58.8 °F 30.2 in Calm   1 mph 86 % 0 in
05:57 63.1 °F 59.2 °F 30.2 in Calm   1 mph 87 % 0 in
06:02 63.1 °F 59.2 °F 30.2 in Calm   1 mph 87 % 0 in
06:12 63 °F 59.4 °F 30.2 in Calm   1 mph 88 % 0 in
06:17 63.1 °F 59.5 °F 30.2 in Calm   1 mph 88 % 0 in
06:22 63.3 °F 59.7 °F 30.2 in WNW 1 mph 1 mph 88 % 0 in
06:32 63.3 °F 59 °F 30.2 in Calm   1 mph 86 % 0 in
06:42 62.4 °F 59.2 °F 30.2 in Calm   1 mph 89 % 0 in
06:47 62.6 °F 59.4 °F 30.2 in Calm   1 mph 89 % 0 in
06:52 62.8 °F 59.5 °F 30.2 in Calm   1 mph 89 % 0 in
07:02 63.7 °F 60.1 °F 30.2 in Calm     88 % 0 in
07:12 64.6 °F 60.6 °F 30.2 in Calm     87 % 0 in
07:17 65.1 °F 61.2 °F 30.2 in Calm     87 % 0 in
07:27 68 °F 63 °F 30.2 in Calm     84 % 0 in
07:32 68.5 °F 62.1 °F 30.2 in Calm     80 % 0 in
07:42 68.9 °F 62.1 °F 30.2 in Calm     79 % 0 in
07:47 68.9 °F 61.7 °F 30.2 in NNE 1 mph 2 mph 78 % 0 in
07:52 69.1 °F 62.2 °F 30.2 in NNE 2 mph 3 mph 79 % 0 in
07:57 69.3 °F 62.4 °F 30.2 in Calm   3 mph 79 % 0 in
08:02 70 °F 62.8 °F 30.2 in NNE 2 mph 3 mph 78 % 0 in
08:12 70.5 °F 62.6 °F 30.2 in NNE 1 mph 2 mph 76 % 0 in
08:17 70.9 °F 63 °F 30.2 in Calm   2 mph 76 % 0 in
08:22 71.4 °F 63.1 °F 30.2 in ENE 1 mph 2 mph 75 % 0 in
08:32 71.4 °F 63.1 °F 30.2 in ENE 1 mph 2 mph 75 % 0 in
08:42 72.1 °F 63.9 °F 30.2 in ENE 1 mph 3 mph 75 % 0 in
08:47 72.5 °F 63.7 °F 30.2 in NE 2 mph 3 mph 74 % 0 in
08:52 72.9 °F 63 °F 30.2 in East 2 mph 3 mph 71 % 0 in
08:57 73.2 °F 63.3 °F 30.2 in Calm   3 mph 71 % 0 in
09:02 73.8 °F 63.3 °F 30.2 in North 2 mph 3 mph 70 % 0 in
09:12 75.4 °F 63.7 °F 30.2 in Calm   3 mph 67 % 0 in
09:17 76.1 °F 63 °F 30.2 in SW 2 mph 2 mph 64 % 0 in
09:22 76.3 °F 63.7 °F 30.2 in SSW 3 mph 3 mph 65 % 0 in
09:32 76.5 °F 63 °F 30.2 in SE 1 mph 2 mph 63 % 0 in
09:42 78.6 °F 63.5 °F 30.2 in Calm   3 mph 60 % 0 in
09:52 79 °F 63 °F 30.2 in SW 4 mph 4 mph 58 % 0 in
09:57 78.4 °F 62.4 °F 30.2 in East 2 mph 4 mph 58 % 0 in
10:02 79 °F 63 °F 30.2 in Calm   4 mph 58 % 0 in
10:12 79.3 °F 62.2 °F 30.2 in Calm   4 mph 56 % 0 in
10:17 79.9 °F 62.2 °F 30.2 in WSW 2 mph 6 mph 55 % 0 in
10:22 79.9 °F 62.8 °F 30.2 in Calm   6 mph 56 % 0 in
10:32 80.2 °F 62.6 °F 30.2 in East 4 mph 4 mph 55 % 0 in
10:42 79.9 °F 62.8 °F 30.2 in SE 3 mph 6 mph 56 % 0 in
10:52 80.1 °F 63.5 °F 30.2 in ENE 2 mph 6 mph 57 % 0 in
10:57 80.2 °F 62.1 °F 30.2 in ENE 7 mph 8 mph 54 % 0 in
11:02 80.2 °F 63.1 °F 30.2 in East 2 mph 8 mph 56 % 0 in
11:12 80.4 °F 62.8 °F 30.2 in East 3 mph 9 mph 55 % 0 in
11:17 81.3 °F 63.1 °F 30.2 in ENE 7 mph 9 mph 54 % 0 in
11:22 81.7 °F 63 °F 30.2 in Calm   8 mph 53 % 0 in
11:32 81.9 °F 62.4 °F 30.2 in SE 3 mph 7 mph 52 % 0 in
11:42 82 °F 63.1 °F 30.2 in ENE 6 mph 7 mph 53 % 0 in
11:47 82 °F 62.6 °F 30.2 in East 5 mph 9 mph 52 % 0 in
11:52 81.9 °F 62.4 °F 30.2 in NE 6 mph 13 mph 52 % 0 in
11:57 81.9 °F 61.9 °F 30.2 in ENE 2 mph 13 mph 51 % 0 in
12:02 81.9 °F 62.4 °F 30.2 in NE 5 mph 16 mph 52 % 0 in
12:12 82.2 °F 62.2 °F 30.2 in ENE 7 mph 16 mph 51 % 0 in
12:17 82.6 °F 62.6 °F 30.2 in NE 3 mph 9 mph 51 % 0 in
12:22 82 °F 62.6 °F 30.2 in NE 3 mph 9 mph 52 % 0 in
12:32 82.6 °F 63.1 °F 30.2 in NE 6 mph 10 mph 52 % 0 in
12:37 82.9 °F 62.4 °F 30.2 in ENE 7 mph 10 mph 50 % 0 in
12:42 82.4 °F 62.4 °F 30.2 in ENE 5 mph 10 mph 51 % 0 in
12:47 82.8 °F 63.3 °F 30.2 in SSE 1 mph 11 mph 52 % 0 in
12:52 83.7 °F 61.9 °F 30.2 in ENE 8 mph 11 mph 48 % 0 in
12:57 84 °F 62.2 °F 30.2 in ESE 5 mph 11 mph 48 % 0 in
13:02 83.8 °F 62.1 °F 30.1 in ESE 1 mph 11 mph 48 % 0 in
13:12 83.3 °F 62.8 °F 30.1 in NE 7 mph 12 mph 50 % 0 in
13:17 83.7 °F 61.9 °F 30.1 in ENE 10 mph 11 mph 48 % 0 in
13:22 84.4 °F 61.9 °F 30.1 in NE 10 mph 11 mph 47 % 0 in
13:32 83.1 °F 60.8 °F 30.1 in NE 6 mph 11 mph 47 % 0 in
13:37 83.7 °F 61.3 °F 30.1 in NNE 2 mph 11 mph 47 % 0 in
13:42 83.7 °F 60.6 °F 30.1 in NE 6 mph 13 mph 46 % 0 in
13:47 83.1 °F 60.3 °F 30.1 in NE 4 mph 13 mph 46 % 0 in
13:57 84.6 °F 60.8 °F 30.1 in ENE 9 mph 12 mph 45 % 0 in
14:02 84.4 °F 60.8 °F 30.1 in NNE 3 mph 12 mph 45 % 0 in
14:07 84.9 °F 60.6 °F 30.1 in ESE 10 mph 12 mph 44 % 0 in
14:12 85.3 °F 59.5 °F 30.1 in ENE 7 mph 13 mph 42 % 0 in
14:17 85.5 °F 60.4 °F 30.1 in ENE 5 mph 13 mph 43 % 0 in
14:22 84.9 °F 58.6 °F 30.1 in ENE 1 mph 13 mph 41 % 0 in
14:27 85.3 °F 60.3 °F 30.1 in East 6 mph 12 mph 43 % 0 in
14:32 85.8 °F 60.8 °F 30.1 in ENE 9 mph 12 mph 43 % 0 in
14:37 85.6 °F 60.6 °F 30.1 in ESE 2 mph 12 mph 43 % 0 in
14:42 85.6 °F 60.6 °F 30.1 in ENE 6 mph 13 mph 43 % 0 in
14:47 85.6 °F 59.9 °F 30.1 in ENE 3 mph 13 mph 42 % 0 in
14:52 85.6 °F 60.6 °F 30.1 in East 2 mph 13 mph 43 % 0 in
14:57 86.4 °F 59.9 °F 30.1 in SE 5 mph 10 mph 41 % 0 in
15:02 87.3 °F 59.9 °F 30.1 in ENE 8 mph 8 mph 40 % 0 in
15:12 87.3 °F 59.4 °F 30.1 in East 6 mph 15 mph 39 % 0 in
15:17 87.1 °F 58.5 °F 30.1 in ENE 7 mph 15 mph 38 % 0 in
15:22 86.7 °F 58.8 °F 30.1 in NE 3 mph 17 mph 39 % 0 in
15:32 86.5 °F 58.6 °F 30.1 in ENE 7 mph 14 mph 39 % 0 in
15:37 86.5 °F 58.6 °F 30.1 in ENE 7 mph 14 mph 39 % 0 in
15:42 86.9 °F 59.7 °F 30.1 in East 4 mph 14 mph 40 % 0 in
15:47 87.3 °F 58.6 °F 30.1 in East 4 mph 12 mph 38 % 0 in
15:52 87.4 °F 58.6 °F 30.1 in ENE 10 mph 12 mph 38 % 0 in
15:57 87.4 °F 58.6 °F 30.1 in ENE 4 mph 12 mph 38 % 0 in
16:02 87.3 °F 59.4 °F 30.1 in ENE 2 mph 13 mph 39 % 0 in
16:12 88.7 °F 59.9 °F 30.1 in ENE 7 mph 10 mph 38 % 0 in
16:17 87.3 °F 59.4 °F 30.1 in NE 6 mph 11 mph 39 % 0 in
16:22 86.4 °F 59.2 °F 30.1 in ESE 3 mph 11 mph 40 % 0 in
16:32 87.3 °F 59.4 °F 30.1 in ENE 6 mph 9 mph 39 % 0 in
16:37 86.9 °F 59.7 °F 30.1 in NE 4 mph 9 mph 40 % 0 in
16:42 87.8 °F 60.4 °F 30.1 in NE 11 mph 11 mph 40 % 0 in
16:47 87.1 °F 59.9 °F 30.1 in East 5 mph 12 mph 40 % 0 in
16:52 85.8 °F 60.1 °F 30.1 in NNE 7 mph 12 mph 42 % 0 in
16:57 85.6 °F 59.2 °F 30.1 in East 2 mph 12 mph 41 % 0 in
17:02 86.5 °F 60.1 °F 30.1 in ESE 3 mph 11 mph 41 % 0 in
17:12 88.3 °F 61 °F 30.1 in SE 4 mph 6 mph 40 % 0 in
17:17 88.2 °F 60.8 °F 30.1 in East 6 mph 13 mph 40 % 0 in
17:22 88.3 °F 61 °F 30.1 in ESE 4 mph 13 mph 40 % 0 in
17:27 88 °F 59.9 °F 30.1 in ESE 5 mph 13 mph 39 % 0 in
17:32 88 °F 60.6 °F 30.1 in ENE 7 mph 10 mph 40 % 0 in
17:37 88.2 °F 60.8 °F 30.1 in ENE 2 mph 10 mph 40 % 0 in
17:42 88.3 °F 61 °F 30.1 in ENE 4 mph 10 mph 40 % 0 in
17:47 88.2 °F 60.1 °F 30.1 in ENE 5 mph 14 mph 39 % 0 in
17:52 87.1 °F 59.2 °F 30.1 in ENE 9 mph 15 mph 39 % 0 in
17:57 86.7 °F 60.3 °F 30.1 in ENE 7 mph 15 mph 41 % 0 in
18:02 87.4 °F 60.1 °F 30.1 in ENE 7 mph 15 mph 40 % 0 in
18:07 87.3 °F 60.6 °F 30.1 in East 1 mph 12 mph 41 % 0 in
18:12 87.8 °F 60.4 °F 30.1 in ENE 2 mph 12 mph 40 % 0 in
18:17 88 °F 59.9 °F 30.1 in ESE 3 mph 12 mph 39 % 0 in
18:22 87.6 °F 59.5 °F 30.1 in SSE 4 mph 12 mph 39 % 0 in
18:27 87.6 °F 60.3 °F 30.1 in ENE 4 mph 12 mph 40 % 0 in
18:32 88.3 °F 60.3 °F 30.1 in East 2 mph 9 mph 39 % 0 in
18:42 87.6 °F 59.5 °F 30.1 in ENE 3 mph 12 mph 39 % 0 in
18:47 87.3 °F 59.4 °F 30.1 in NE 4 mph 15 mph 39 % 0 in
18:52 86.7 °F 59.5 °F 30.1 in ENE 8 mph 15 mph 40 % 0 in
18:57 86.5 °F 60.1 °F 30.1 in ENE 6 mph 15 mph 41 % 0 in
19:02 86.5 °F 59.4 °F 30.1 in ENE 4 mph 12 mph 40 % 0 in
19:07 86.9 °F 59.7 °F 30.1 in East 5 mph 12 mph 40 % 0 in
19:12 86.7 °F 59.5 °F 30.1 in ENE 3 mph 12 mph 40 % 0 in
19:22 86.9 °F 59.7 °F 30.1 in ENE 3 mph 10 mph 40 % 0 in
19:32 87.1 °F 59.9 °F 30.1 in ESE 4 mph 7 mph 40 % 0 in
19:37 87.4 °F 60.1 °F 30.1 in ESE 1 mph 7 mph 40 % 0 in
19:42 87.3 °F 59.4 °F 30.1 in East 4 mph 6 mph 39 % 0 in
19:47 86.9 °F 59.7 °F 30.1 in East 5 mph 12 mph 40 % 0 in
19:52 86.7 °F 59.5 °F 30.1 in East 1 mph 12 mph 40 % 0 in
19:57 86.7 °F 59.5 °F 30.1 in East 7 mph 12 mph 40 % 0 in
20:02 86.5 °F 59.4 °F 30.1 in East 1 mph 10 mph 40 % 0 in
20:12 86.7 °F 59.5 °F 30.1 in ENE 2 mph 10 mph 40 % 0 in
20:17 86.2 °F 59 °F 30.1 in East 5 mph 7 mph 40 % 0 in
20:22 85.8 °F 59.4 °F 30.1 in East 3 mph 7 mph 41 % 0 in
20:27 85.8 °F 59.4 °F 30.1 in East 1 mph 7 mph 41 % 0 in
20:32 85.8 °F 59.4 °F 30.1 in East 3 mph 7 mph 41 % 0 in
20:37 85.6 °F 59.2 °F 30.1 in ESE 1 mph 7 mph 41 % 0 in
20:42 85.5 °F 59 °F 30.1 in East 2 mph 6 mph 41 % 0 in
20:47 85.3 °F 59.5 °F 30.1 in NE 1 mph 6 mph 42 % 0 in
20:52 84.9 °F 59.2 °F 30.1 in East 1 mph 5 mph 42 % 0 in
20:57 84.6 °F 59.5 °F 30.1 in East 1 mph 5 mph 43 % 0 in
21:02 84.4 °F 59.4 °F 30.1 in East 1 mph 4 mph 43 % 0 in
21:07 83.8 °F 59.5 °F 30.1 in Calm   4 mph 44 % 0 in
21:12 83.3 °F 59.7 °F 30.1 in East 1 mph 2 mph 45 % 0 in
21:17 82.8 °F 59.9 °F 30.1 in Calm   2 mph 46 % 0 in
21:22 82.2 °F 59.9 °F 30.1 in Calm   2 mph 47 % 0 in
21:32 81.1 °F 60.1 °F 30.1 in Calm   1 mph 49 % 0 in
21:37 80.8 °F 60.4 °F 30.1 in Calm   1 mph 50 % 0 in
21:42 80.2 °F 61 °F 30.1 in Calm   1 mph 52 % 0 in
21:52 79 °F 60.4 °F 30.1 in Calm   1 mph 53 % 0 in
21:57 78.4 °F 60.4 °F 30.1 in Calm     54 % 0 in
22:07 77.5 °F 60.1 °F 30.1 in Calm     55 % 0 in
22:12 77.2 °F 60.3 °F 30.1 in Calm     56 % 0 in
22:17 77.2 °F 60.3 °F 30.1 in North 1 mph   56 % 0 in
22:22 77 °F 60.1 °F 30.1 in Calm   1 mph 56 % 0 in
22:27 76.6 °F 60.3 °F 30.1 in NW 1 mph 1 mph 57 % 0 in
22:32 76.3 °F 59.9 °F 30.1 in Calm   2 mph 57 % 0 in
22:37 75.7 °F 59.9 °F 30.1 in Calm   2 mph 58 % 0 in
22:42 75.4 °F 60.1 °F 30.1 in Calm   2 mph 59 % 0 in
22:47 75.2 °F 59.9 °F 30.1 in NNW 1 mph   59 % 0 in
22:52 75 °F 59.7 °F 30.1 in North 1 mph 2 mph 59 % 0 in
22:57 74.8 °F 60.1 °F 30.1 in North 1 mph 2 mph 60 % 0 in
23:02 74.7 °F 59.9 °F 30.1 in Calm   2 mph 60 % 0 in
23:12 73.6 °F 60.3 °F 30.1 in Calm   2 mph 63 % 0 in
23:17 73 °F 60.1 °F 30.1 in Calm   1 mph 64 % 0 in
23:22 72.7 °F 60.3 °F 30.1 in Calm   1 mph 65 % 0 in
23:27 72.9 °F 60.4 °F 30.1 in Calm   1 mph 65 % 0 in
23:32 72.7 °F 60.3 °F 30.1 in NNE 2 mph 2 mph 65 % 0 in
23:37 72.3 °F 60.3 °F 30.1 in NNW 2 mph 3 mph 66 % 0 in
23:42 72.3 °F 60.3 °F 30.1 in NW 1 mph 3 mph 66 % 0 in
23:47 72.5 °F 60.4 °F 30.1 in Calm   3 mph 66 % 0 in
23:52 72.1 °F 60.1 °F 30.1 in Calm   3 mph 66 % 0 in
23:57 72 °F 60.4 °F 30.1 in Calm   3 mph 67 % 0 in
Meteo18
Compliments of Weather Underground - 4 mb

Script developed by  Jim McMurry - jmcmurry@mwt.net Adapted for the template by  Wim van der Kuil - Leuven-Template.eu

You find our weather info also at:

European Weather Network

Weather Underground

Equipment we use:

Weather-station
Davis Vue

Weather-program
Meteohub

Weather-server
Raspberry PI 2 B+

Provider
1 and 1

Davis Vue

Meteohub

Raspberry PI 2 B+

1 and 1